Time;durP1;ratioP1;P1;durP2;ratioP2;P2;SDS_P1;SDS_P2;PMS_P1;PMS_P2;Temp;Humidity;BMP_temperature;BMP_pressure;BME280_temperature;BME280_humidity;BME280_pressure;Samples;Min_cycle;Max_cycle;Signal;HPM_P1;HPM_P2
2021/05/10 00:00:52;;;;;;;10.57;7.85;;;;;;;;;;5046911;28;20087;-84
2021/05/10 00:03:19;;;;;;;11.20;7.82;;;;;;;;;;5047008;28;20485;-84
2021/05/10 00:05:45;;;;;;;8.88;7.22;;;;;;;;;;5047073;28;20040;-84
2021/05/10 00:08:11;;;;;;;9.38;7.68;;;;;;;;;;5046900;28;20168;-84
2021/05/10 00:10:39;;;;;;;9.02;7.78;;;;;;;;;;5030363;28;20052;-83
2021/05/10 00:13:06;;;;;;;8.45;6.95;;;;;;;;;;5046834;28;20040;-84
2021/05/10 00:15:33;;;;;;;7.35;6.22;;;;;;;;;;5046672;28;20037;-85
2021/05/10 00:18:02;;;;;;;9.98;7.53;;;;;;;;;;5046830;28;20474;-85
2021/05/10 00:20:31;;;;;;;8.77;6.65;;;;;;;;;;5031655;28;20037;-84
2021/05/10 00:22:58;;;;;;;9.05;7.03;;;;;;;;;;5046909;28;20116;-85
2021/05/10 00:25:24;;;;;;;10.20;7.10;;;;;;;;;;5031571;28;20073;-85
2021/05/10 00:27:50;;;;;;;8.23;7.20;;;;;;;;;;5046574;28;20072;-85
2021/05/10 00:30:16;;;;;;;10.63;7.05;;;;;;;;;;5046939;28;20044;-85
2021/05/10 00:32:44;;;;;;;10.05;7.10;;;;;;;;;;5046687;28;20064;-85
2021/05/10 00:35:10;;;;;;;9.20;7.45;;;;;;;;;;5048268;28;20034;-84
2021/05/10 00:37:36;;;;;;;9.82;7.22;;;;;;;;;;5050156;28;20041;-84
2021/05/10 00:40:05;;;;;;;10.27;7.15;;;;;;;;;;5049873;28;20068;-84
2021/05/10 00:42:31;;;;;;;10.60;7.18;;;;;;;;;;5050169;28;20499;-84
2021/05/10 00:44:58;;;;;;;8.05;6.65;;;;;;;;;;5050119;28;20116;-84
2021/05/10 00:47:25;;;;;;;9.70;7.07;;;;;;;;;;5050071;28;20065;-84
2021/05/10 00:49:51;;;;;;;8.27;6.97;;;;;;;;;;5050026;28;20087;-84
2021/05/10 00:52:18;;;;;;;8.98;7.40;;;;;;;;;;5049958;28;20485;-84
2021/05/10 00:54:44;;;;;;;9.88;7.60;;;;;;;;;;5050146;28;20048;-84
2021/05/10 00:57:10;;;;;;;10.77;8.02;;;;;;;;;;5049648;28;20114;-84
2021/05/10 00:59:44;;;;;;;13.65;8.70;;;;;;;;;;5033485;28;20111;-84
2021/05/10 01:02:10;;;;;;;11.00;8.18;;;;;;;;;;5049853;28;20034;-83
2021/05/10 01:04:36;;;;;;;15.27;9.80;;;;;;;;;;5034555;28;20049;-84
2021/05/10 01:07:03;;;;;;;14.98;9.43;;;;;;;;;;5049682;28;20495;-84
2021/05/10 01:09:29;;;;;;;14.13;10.45;;;;;;;;;;5049674;28;20034;-85
2021/05/10 01:11:57;;;;;;;14.52;9.73;;;;;;;;;;5049475;28;20045;-84
2021/05/10 01:14:22;;;;;;;14.77;10.02;;;;;;;;;;5049577;28;20044;-84
2021/05/10 01:16:48;;;;;;;15.80;10.57;;;;;;;;;;5049624;28;20037;-85
2021/05/10 01:19:15;;;;;;;14.57;11.00;;;;;;;;;;5049587;28;20037;-85
2021/05/10 01:21:41;;;;;;;15.65;10.52;;;;;;;;;;5049565;28;20044;-84
2021/05/10 01:24:07;;;;;;;15.55;10.48;;;;;;;;;;5049306;28;20045;-85
2021/05/10 01:26:33;;;;;;;15.13;10.88;;;;;;;;;;5049291;28;20440;-85
2021/05/10 01:28:59;;;;;;;13.50;9.65;;;;;;;;;;5034094;28;20038;-84
2021/05/10 01:31:29;;;;;;;13.57;10.30;;;;;;;;;;5034046;28;20043;-85
2021/05/10 01:33:55;;;;;;;14.15;9.95;;;;;;;;;;5049263;28;20405;-84
2021/05/10 01:36:21;;;;;;;15.02;10.45;;;;;;;;;;5049371;28;20037;-84
2021/05/10 01:38:47;;;;;;;12.50;9.73;;;;;;;;;;5049112;28;20042;-84
2021/05/10 01:41:15;;;;;;;14.75;10.20;;;;;;;;;;5033846;28;20045;-85
2021/05/10 01:43:41;;;;;;;14.43;10.27;;;;;;;;;;5049019;28;20443;-85
2021/05/10 01:46:07;;;;;;;13.60;10.15;;;;;;;;;;5048242;28;20037;-85
2021/05/10 01:48:33;;;;;;;15.43;9.85;;;;;;;;;;5048979;28;20073;-85
2021/05/10 01:50:59;;;;;;;14.40;9.73;;;;;;;;;;5049037;28;20065;-84
2021/05/10 01:53:25;;;;;;;13.88;9.60;;;;;;;;;;5048888;28;20081;-84
2021/05/10 01:55:51;;;;;;;13.93;9.80;;;;;;;;;;5033588;28;20038;-85
2021/05/10 01:58:17;;;;;;;13.50;9.18;;;;;;;;;;5033418;28;20052;-85
2021/05/10 02:00:44;;;;;;;11.15;9.00;;;;;;;;;;5033405;28;20042;-85
2021/05/10 02:03:11;;;;;;;13.25;9.93;;;;;;;;;;5048612;28;20037;-85
2021/05/10 02:05:37;;;;;;;13.60;9.52;;;;;;;;;;5033291;28;20037;-85
2021/05/10 02:08:05;;;;;;;15.52;10.30;;;;;;;;;;5048451;28;20041;-85
2021/05/10 02:10:31;;;;;;;12.48;10.48;;;;;;;;;;5048538;28;20045;-85
2021/05/10 02:12:58;;;;;;;12.38;9.98;;;;;;;;;;5048495;28;20048;-85
2021/05/10 02:15:28;;;;;;;16.08;10.88;;;;;;;;;;5048476;28;20045;-84
2021/05/10 02:17:56;;;;;;;13.35;10.43;;;;;;;;;;5031700;28;20048;-85
2021/05/10 02:20:22;;;;;;;15.32;10.85;;;;;;;;;;5048393;28;20481;-84
2021/05/10 02:22:52;;;;;;;14.82;10.18;;;;;;;;;;5048262;28;20049;-85
2021/05/10 02:25:22;;;;;;;15.63;10.50;;;;;;;;;;5048240;28;20069;-85
2021/05/10 02:27:48;;;;;;;13.80;10.73;;;;;;;;;;5048075;28;20072;-85
2021/05/10 02:30:15;;;;;;;13.15;9.95;;;;;;;;;;5048184;28;20070;-84
2021/05/10 02:32:41;;;;;;;15.18;11.40;;;;;;;;;;5047996;28;20116;-84
2021/05/10 02:35:18;;;;;;;15.27;10.68;;;;;;;;;;5046834;28;20034;-84
2021/05/10 02:37:44;;;;;;;18.83;11.13;;;;;;;;;;5047909;28;20363;-84
2021/05/10 02:40:10;;;;;;;14.20;9.88;;;;;;;;;;5047856;28;20064;-85
2021/05/10 02:42:41;;;;;;;14.10;11.00;;;;;;;;;;5047473;28;20046;-84
2021/05/10 02:45:07;;;;;;;17.67;11.70;;;;;;;;;;5047769;28;20065;-84
2021/05/10 02:47:33;;;;;;;14.48;11.85;;;;;;;;;;5047627;28;20045;-84
2021/05/10 02:49:59;;;;;;;18.15;13.52;;;;;;;;;;5047902;28;20041;-84
2021/05/10 02:52:25;;;;;;;18.63;12.95;;;;;;;;;;5047879;28;20056;-84
2021/05/10 02:54:51;;;;;;;15.95;11.65;;;;;;;;;;5048180;28;20084;-84
2021/05/10 02:57:23;;;;;;;18.00;12.23;;;;;;;;;;5030997;28;20080;-84
2021/05/10 02:59:49;;;;;;;17.88;11.95;;;;;;;;;;5032311;28;20405;-84
2021/05/10 03:02:15;;;;;;;17.27;11.40;;;;;;;;;;5047629;28;20033;-85
2021/05/10 03:04:43;;;;;;;15.90;11.57;;;;;;;;;;5030854;28;20041;-84
2021/05/10 03:07:11;;;;;;;16.20;11.85;;;;;;;;;;5032225;28;20119;-84
2021/05/10 03:09:37;;;;;;;18.70;13.18;;;;;;;;;;5047659;28;20056;-84
2021/05/10 03:12:03;;;;;;;17.30;11.85;;;;;;;;;;5031164;28;20045;-84
2021/05/10 03:14:29;;;;;;;19.10;13.20;;;;;;;;;;5047548;28;20041;-84
2021/05/10 03:16:55;;;;;;;16.58;12.60;;;;;;;;;;5047477;28;20493;-84
2021/05/10 03:19:21;;;;;;;16.38;11.77;;;;;;;;;;5032298;28;20033;-84
2021/05/10 03:21:48;;;;;;;16.92;11.98;;;;;;;;;;5047431;28;20045;-84
2021/05/10 03:24:14;;;;;;;18.88;12.75;;;;;;;;;;5047407;28;20041;-84
2021/05/10 03:26:40;;;;;;;17.52;12.52;;;;;;;;;;5047316;28;20057;-85
2021/05/10 03:29:06;;;;;;;19.50;13.23;;;;;;;;;;5031925;28;20051;-85
2021/05/10 03:31:33;;;;;;;15.45;12.38;;;;;;;;;;5032053;28;20307;-85
2021/05/10 03:33:59;;;;;;;15.77;11.57;;;;;;;;;;5047243;28;20041;-84
2021/05/10 03:36:25;;;;;;;19.25;12.70;;;;;;;;;;5047328;28;20464;-84
2021/05/10 03:38:51;;;;;;;19.35;12.65;;;;;;;;;;5031673;28;20436;-84
2021/05/10 03:41:17;;;;;;;19.13;13.48;;;;;;;;;;5030583;28;20037;-85
2021/05/10 03:43:45;;;;;;;17.25;12.30;;;;;;;;;;5031729;28;20045;-84
2021/05/10 03:46:11;;;;;;;17.23;11.82;;;;;;;;;;5047054;28;20565;-84
2021/05/10 03:48:37;;;;;;;19.05;12.93;;;;;;;;;;5047215;28;20056;-84
2021/05/10 03:51:03;;;;;;;18.98;12.90;;;;;;;;;;5047185;28;20037;-85
2021/05/10 03:53:30;;;;;;;17.52;12.45;;;;;;;;;;5047036;28;20045;-85
2021/05/10 03:55:56;;;;;;;19.20;13.55;;;;;;;;;;5047281;28;20037;-85
2021/05/10 03:58:22;;;;;;;18.92;13.63;;;;;;;;;;5046752;28;20076;-85
2021/05/10 04:00:48;;;;;;;17.35;12.95;;;;;;;;;;5046939;28;20044;-85
2021/05/10 04:03:15;;;;;;;18.63;13.65;;;;;;;;;;5047106;28;20056;-84
2021/05/10 04:11:03;;;;;;;18.33;13.57;;;;;;;;;;5034588;28;20037;-85
2021/05/10 04:13:50;;;;;;;16.98;12.55;;;;;;;;;;5049848;28;20493;-85
2021/05/10 04:16:20;;;;;;;13.60;11.02;;;;;;;;;;5047610;28;20401;-85
2021/05/10 04:18:46;;;;;;;14.07;10.68;;;;;;;;;;5050651;28;20087;-85
2021/05/10 04:21:12;;;;;;;14.05;10.95;;;;;;;;;;5035246;28;20041;-85
2021/05/10 04:23:38;;;;;;;13.38;9.55;;;;;;;;;;5050686;28;20033;-85
2021/05/10 04:26:04;;;;;;;13.30;9.85;;;;;;;;;;5050592;28;20065;-85
2021/05/10 04:28:30;;;;;;;12.63;9.05;;;;;;;;;;5035468;28;20072;-85
2021/05/10 04:30:56;;;;;;;11.43;9.05;;;;;;;;;;5050641;28;20040;-85
2021/05/10 04:33:26;;;;;;;13.98;9.80;;;;;;;;;;5050354;28;20052;-85
2021/05/10 04:35:52;;;;;;;16.08;9.50;;;;;;;;;;5035012;28;20037;-85
2021/05/10 04:38:18;;;;;;;14.65;9.65;;;;;;;;;;5050287;28;20389;-85
2021/05/10 04:40:46;;;;;;;14.23;8.90;;;;;;;;;;5050143;28;20049;-86
2021/05/10 04:43:12;;;;;;;10.98;8.95;;;;;;;;;;5050270;28;20112;-85
2021/05/10 04:45:40;;;;;;;10.85;7.93;;;;;;;;;;5049999;28;20397;-85
2021/05/10 04:48:06;;;;;;;11.88;7.90;;;;;;;;;;5050232;28;20068;-85
2021/05/10 04:50:33;;;;;;;7.97;6.80;;;;;;;;;;5050156;28;20083;-84
2021/05/10 04:52:59;;;;;;;8.55;6.78;;;;;;;;;;5050360;28;20038;-85
2021/05/10 04:55:25;;;;;;;8.65;7.43;;;;;;;;;;5034690;28;20049;-85
2021/05/10 04:57:51;;;;;;;12.02;7.90;;;;;;;;;;5049894;28;20034;-86
2021/05/10 05:00:17;;;;;;;8.23;6.38;;;;;;;;;;5034748;28;20038;-85
2021/05/10 05:02:44;;;;;;;9.52;6.90;;;;;;;;;;5049899;28;20037;-86
2021/05/10 05:05:11;;;;;;;9.20;6.50;;;;;;;;;;5049929;28;20041;-86
2021/05/10 05:07:39;;;;;;;9.32;6.65;;;;;;;;;;5049924;28;20099;-85
2021/05/10 05:10:05;;;;;;;7.57;6.15;;;;;;;;;;5049460;28;20049;-85
2021/05/10 05:12:32;;;;;;;7.40;5.95;;;;;;;;;;5050036;28;20179;-85
2021/05/10 05:14:58;;;;;;;8.23;4.90;;;;;;;;;;5034618;28;20041;-85
2021/05/10 05:17:24;;;;;;;8.00;4.53;;;;;;;;;;5049459;28;20068;-84
2021/05/10 05:19:51;;;;;;;4.95;3.42;;;;;;;;;;5049640;28;20496;-85
2021/05/10 05:22:17;;;;;;;4.22;3.33;;;;;;;;;;5049608;28;20037;-85
2021/05/10 05:24:43;;;;;;;4.43;2.70;;;;;;;;;;5049607;28;20033;-85
2021/05/10 05:27:09;;;;;;;4.32;2.88;;;;;;;;;;5049460;28;20050;-84
2021/05/10 05:29:35;;;;;;;5.00;3.08;;;;;;;;;;5049476;28;20037;-86
2021/05/10 05:32:01;;;;;;;3.50;2.50;;;;;;;;;;5049572;28;20397;-85
2021/05/10 05:34:27;;;;;;;6.25;2.45;;;;;;;;;;5049422;28;20033;-85
2021/05/10 05:36:53;;;;;;;4.63;2.50;;;;;;;;;;5034017;28;20038;-85
2021/05/10 05:39:19;;;;;;;3.53;2.10;;;;;;;;;;5049091;28;20045;-87
2021/05/10 05:41:45;;;;;;;6.07;2.40;;;;;;;;;;5049103;28;20129;-86
2021/05/10 05:44:12;;;;;;;2.67;1.90;;;;;;;;;;5049223;28;20037;-85
2021/05/10 05:46:42;;;;;;;4.60;1.83;;;;;;;;;;5048933;28;20133;-86
2021/05/10 05:49:08;;;;;;;2.88;2.10;;;;;;;;;;5048576;28;20444;-86
2021/05/10 05:51:35;;;;;;;5.72;2.15;;;;;;;;;;5049321;28;20033;-86
2021/05/10 05:54:02;;;;;;;4.53;2.00;;;;;;;;;;5049094;28;20041;-85
2021/05/10 05:56:28;;;;;;;2.67;1.85;;;;;;;;;;5049316;28;20060;-86
2021/05/10 05:58:54;;;;;;;4.28;2.08;;;;;;;;;;5049182;28;20049;-86
2021/05/10 06:01:21;;;;;;;3.67;1.90;;;;;;;;;;5033339;28;20049;-85
2021/05/10 06:03:47;;;;;;;2.55;1.75;;;;;;;;;;5048560;28;20037;-85
2021/05/10 06:06:13;;;;;;;3.63;1.70;;;;;;;;;;5048638;28;20140;-85
2021/05/10 06:08:39;;;;;;;4.25;1.50;;;;;;;;;;5048651;28;20041;-85
2021/05/10 06:11:07;;;;;;;1.60;1.50;;;;;;;;;;5048913;28;20045;-85
2021/05/10 06:13:36;;;;;;;4.15;1.83;;;;;;;;;;5031983;28;20041;-85
2021/05/10 06:16:03;;;;;;;3.42;1.50;;;;;;;;;;5048569;28;20044;-85
2021/05/10 06:18:29;;;;;;;3.53;1.50;;;;;;;;;;5048214;28;20042;-84
2021/05/10 06:20:55;;;;;;;3.63;1.80;;;;;;;;;;5048464;28;20481;-85
2021/05/10 06:23:22;;;;;;;3.47;1.50;;;;;;;;;;5033110;28;20041;-84
2021/05/10 06:25:48;;;;;;;2.63;1.60;;;;;;;;;;5048323;28;20037;-84
2021/05/10 06:28:14;;;;;;;3.25;1.55;;;;;;;;;;5048126;28;20121;-84
2021/05/10 06:30:40;;;;;;;3.60;1.60;;;;;;;;;;5048405;28;20484;-85
2021/05/10 06:33:06;;;;;;;1.65;1.30;;;;;;;;;;5048053;28;20116;-85
2021/05/10 06:35:32;;;;;;;2.45;1.40;;;;;;;;;;5048395;28;20041;-85
2021/05/10 06:37:58;;;;;;;1.75;1.50;;;;;;;;;;5032682;28;20033;-84
2021/05/10 06:40:24;;;;;;;3.80;1.52;;;;;;;;;;5032582;28;20080;-85
2021/05/10 06:42:52;;;;;;;2.70;1.50;;;;;;;;;;5047888;28;20141;-84
2021/05/10 06:45:18;;;;;;;1.88;1.50;;;;;;;;;;5048078;28;20033;-85
2021/05/10 06:47:46;;;;;;;2.10;1.50;;;;;;;;;;5047825;28;20045;-84
2021/05/10 06:50:12;;;;;;;4.10;1.98;;;;;;;;;;5032730;28;20041;-85
2021/05/10 06:52:38;;;;;;;2.10;1.67;;;;;;;;;;5032637;28;20033;-85
2021/05/10 06:55:05;;;;;;;4.22;1.73;;;;;;;;;;5032884;28;20038;-85
2021/05/10 06:57:31;;;;;;;5.38;1.83;;;;;;;;;;5047689;28;20103;-85
2021/05/10 06:59:57;;;;;;;4.05;1.50;;;;;;;;;;5047862;28;20492;-85
2021/05/10 07:02:24;;;;;;;6.57;1.52;;;;;;;;;;5032592;28;20045;-85
2021/05/10 07:04:50;;;;;;;3.35;1.40;;;;;;;;;;5047757;28;20388;-84
2021/05/10 07:07:16;;;;;;;2.92;1.13;;;;;;;;;;5047611;28;20044;-85
2021/05/10 07:09:44;;;;;;;4.22;1.48;;;;;;;;;;5031170;28;20153;-85
2021/05/10 07:12:12;;;;;;;1.88;1.48;;;;;;;;;;5032287;28;20197;-85
2021/05/10 07:14:38;;;;;;;2.90;1.60;;;;;;;;;;5047578;28;20041;-85
2021/05/10 07:17:06;;;;;;;8.32;1.63;;;;;;;;;;5047333;28;20481;-85
2021/05/10 07:19:32;;;;;;;4.18;1.70;;;;;;;;;;5047541;28;20401;-86
2021/05/10 07:21:58;;;;;;;3.25;1.33;;;;;;;;;;5032252;28;20532;-86
2021/05/10 07:24:24;;;;;;;2.17;1.45;;;;;;;;;;5047567;28;20041;-85
2021/05/10 07:26:51;;;;;;;5.65;1.15;;;;;;;;;;5047400;28;20104;-85
2021/05/10 07:29:17;;;;;;;2.40;0.88;;;;;;;;;;5047418;28;20045;-86
2021/05/10 07:31:43;;;;;;;2.45;0.95;;;;;;;;;;5047539;28;20073;-85
2021/05/10 07:34:09;;;;;;;3.33;0.98;;;;;;;;;;5047640;28;20048;-85
2021/05/10 07:36:35;;;;;;;2.65;1.00;;;;;;;;;;5047454;28;20534;-85
2021/05/10 07:39:01;;;;;;;3.80;1.00;;;;;;;;;;5047049;28;20049;-84
2021/05/10 07:41:28;;;;;;;2.70;1.20;;;;;;;;;;5032171;28;20045;-85
2021/05/10 07:43:54;;;;;;;1.95;1.13;;;;;;;;;;5047394;28;20492;-85
2021/05/10 07:46:23;;;;;;;2.00;1.08;;;;;;;;;;5034261;28;20037;-82
2021/05/10 07:48:50;;;;;;;3.25;1.17;;;;;;;;;;5036024;28;20045;-83
2021/05/10 07:51:17;;;;;;;3.28;1.05;;;;;;;;;;5051281;28;20044;-83
2021/05/10 07:53:43;;;;;;;4.30;1.15;;;;;;;;;;5051072;28;20131;-84
2021/05/10 07:56:09;;;;;;;2.80;1.20;;;;;;;;;;5051282;28;20167;-84
2021/05/10 07:58:38;;;;;;;2.70;1.20;;;;;;;;;;5035784;28;20149;-84
2021/05/10 08:01:04;;;;;;;3.17;1.10;;;;;;;;;;5051233;28;20041;-84
2021/05/10 08:03:39;;;;;;;2.50;1.02;;;;;;;;;;5034479;28;20475;-84
2021/05/10 08:06:05;;;;;;;1.30;0.82;;;;;;;;;;5050628;28;20037;-83
2021/05/10 08:08:32;;;;;;;0.88;0.65;;;;;;;;;;5050902;28;20452;-83
2021/05/10 08:10:58;;;;;;;1.30;0.82;;;;;;;;;;5051005;28;20065;-84
2021/05/10 08:13:24;;;;;;;1.52;0.70;;;;;;;;;;5050932;28;20566;-83
2021/05/10 08:15:50;;;;;;;0.73;0.50;;;;;;;;;;5050881;28;20045;-83
2021/05/10 08:18:17;;;;;;;0.80;0.55;;;;;;;;;;5035358;28;20046;-83
2021/05/10 08:20:43;;;;;;;2.75;0.50;;;;;;;;;;5035444;28;20121;-84
2021/05/10 08:23:09;;;;;;;2.25;0.60;;;;;;;;;;5050773;28;20033;-84
2021/05/10 08:25:35;;;;;;;1.60;0.60;;;;;;;;;;5050793;28;20119;-84
2021/05/10 08:28:01;;;;;;;0.93;0.55;;;;;;;;;;5050567;28;20048;-84
2021/05/10 08:30:28;;;;;;;0.52;0.45;;;;;;;;;;5035208;28;20111;-84
2021/05/10 08:32:57;;;;;;;1.58;0.50;;;;;;;;;;5050547;28;20037;-84
2021/05/10 08:35:23;;;;;;;3.03;0.45;;;;;;;;;;5049969;28;20068;-84
2021/05/10 08:37:49;;;;;;;1.35;0.60;;;;;;;;;;5050200;28;20042;-84
2021/05/10 08:40:15;;;;;;;0.70;0.60;;;;;;;;;;5050160;28;20057;-84
2021/05/10 08:42:43;;;;;;;0.85;0.60;;;;;;;;;;5050553;28;20432;-84
2021/05/10 08:45:09;;;;;;;1.10;0.47;;;;;;;;;;5050369;28;20037;-84
2021/05/10 08:47:37;;;;;;;2.80;0.60;;;;;;;;;;5050077;28;20051;-84
2021/05/10 08:50:05;;;;;;;0.47;0.45;;;;;;;;;;5049910;28;20049;-84
2021/05/10 08:52:33;;;;;;;0.70;0.40;;;;;;;;;;5050186;28;20445;-84
2021/05/10 08:54:59;;;;;;;0.70;0.60;;;;;;;;;;5050054;28;20410;-84
2021/05/10 08:57:25;;;;;;;1.15;0.60;;;;;;;;;;5049580;28;20060;-84
2021/05/10 08:59:51;;;;;;;1.02;0.55;;;;;;;;;;5034784;28;20382;-83
2021/05/10 09:02:18;;;;;;;0.80;0.63;;;;;;;;;;5050028;28;20096;-83
2021/05/10 09:04:44;;;;;;;2.95;0.70;;;;;;;;;;5050044;28;20068;-84
2021/05/10 09:07:17;;;;;;;1.02;0.70;;;;;;;;;;5049904;28;20040;-83
2021/05/10 09:09:49;;;;;;;2.17;0.60;;;;;;;;;;5049948;28;20112;-84
2021/05/10 09:12:16;;;;;;;1.00;0.68;;;;;;;;;;5034637;28;20037;-83
2021/05/10 09:14:42;;;;;;;2.08;0.70;;;;;;;;;;5050042;28;20037;-84
2021/05/10 09:17:09;;;;;;;2.50;0.85;;;;;;;;;;5049389;28;20056;-84
2021/05/10 09:19:45;;;;;;;0.93;0.80;;;;;;;;;;5034354;28;20042;-84
2021/05/10 09:22:12;;;;;;;1.05;0.93;;;;;;;;;;5033419;28;20098;-84
2021/05/10 09:24:47;;;;;;;1.20;1.00;;;;;;;;;;5049613;28;20033;-84
2021/05/10 09:27:28;;;;;;;3.08;0.70;;;;;;;;;;5049706;28;20037;-84
2021/05/10 09:30:13;;;;;;;1.08;0.98;;;;;;;;;;5049304;28;20175;-83
2021/05/10 09:32:39;;;;;;;1.02;0.90;;;;;;;;;;5034044;28;20037;-84
2021/05/10 09:35:13;;;;;;;2.30;1.38;;;;;;;;;;5049395;28;20071;-84
2021/05/10 09:37:39;;;;;;;2.70;1.23;;;;;;;;;;5049039;28;20083;-84
2021/05/10 09:40:05;;;;;;;2.05;1.27;;;;;;;;;;5049052;28;20182;-83
2021/05/10 09:42:53;;;;;;;3.05;1.30;;;;;;;;;;5049136;28;20037;-84
2021/05/10 09:45:28;;;;;;;2.15;1.60;;;;;;;;;;5049628;28;20052;-83
2021/05/10 09:48:05;;;;;;;2.88;1.83;;;;;;;;;;5033761;28;20049;-82
2021/05/10 09:50:35;;;;;;;4.13;1.40;;;;;;;;;;5048737;28;20041;-85
2021/05/10 09:53:02;;;;;;;1.92;1.50;;;;;;;;;;5033708;28;20037;-84
2021/05/10 09:56:00;;;;;;;2.17;1.20;;;;;;;;;;5048943;28;20485;-84
2021/05/10 09:58:47;;;;;;;1.60;1.15;;;;;;;;;;5021256;28;20045;-84
2021/05/10 10:01:13;;;;;;;1.73;1.05;;;;;;;;;;5033577;28;20508;-85
2021/05/10 10:03:43;;;;;;;1.55;1.10;;;;;;;;;;5048743;28;20382;-84
2021/05/10 10:06:09;;;;;;;1.23;1.00;;;;;;;;;;5048759;28;20152;-84
2021/05/10 10:08:36;;;;;;;1.67;1.20;;;;;;;;;;5047856;28;20048;-84
2021/05/10 10:11:02;;;;;;;2.53;1.30;;;;;;;;;;5048611;28;20112;-84
2021/05/10 10:13:28;;;;;;;2.95;1.20;;;;;;;;;;5048554;28;20061;-84
2021/05/10 10:15:57;;;;;;;2.25;1.20;;;;;;;;;;5048636;28;20042;-84
2021/05/10 10:18:23;;;;;;;1.27;1.17;;;;;;;;;;5033186;28;20073;-84
2021/05/10 10:20:49;;;;;;;2.17;1.25;;;;;;;;;;5048594;28;20038;-83
2021/05/10 10:23:16;;;;;;;1.85;1.00;;;;;;;;;;5048643;28;20091;-84
2021/05/10 10:25:42;;;;;;;0.80;0.80;;;;;;;;;;5032986;28;20037;-84
2021/05/10 10:28:09;;;;;;;1.10;1.00;;;;;;;;;;5032892;28;20099;-84
2021/05/10 10:30:39;;;;;;;1.20;1.00;;;;;;;;;;5048402;28;20418;-84
2021/05/10 10:33:06;;;;;;;3.05;0.98;;;;;;;;;;5048191;28;20144;-84
2021/05/10 10:35:32;;;;;;;2.15;1.10;;;;;;;;;;5048299;28;20033;-84
2021/05/10 10:37:59;;;;;;;1.40;0.95;;;;;;;;;;5048185;28;20065;-84
2021/05/10 10:40:25;;;;;;;1.83;1.13;;;;;;;;;;5047643;28;20053;-84
2021/05/10 10:42:51;;;;;;;1.75;1.10;;;;;;;;;;5048171;28;20088;-83
2021/05/10 10:45:21;;;;;;;1.25;1.00;;;;;;;;;;5032865;28;20044;-84
2021/05/10 10:47:52;;;;;;;1.25;0.82;;;;;;;;;;5048116;28;20073;-84
2021/05/10 10:50:20;;;;;;;1.33;0.95;;;;;;;;;;5047612;28;20112;-84
2021/05/10 10:52:48;;;;;;;0.98;0.80;;;;;;;;;;5032729;28;20176;-84
2021/05/10 10:55:15;;;;;;;1.30;0.80;;;;;;;;;;5032556;28;20041;-84
2021/05/10 10:57:41;;;;;;;1.90;1.00;;;;;;;;;;5047716;28;20116;-84
2021/05/10 11:00:07;;;;;;;1.83;1.02;;;;;;;;;;5047738;28;20485;-84
2021/05/10 11:03:00;;;;;;;2.45;1.00;;;;;;;;;;5047819;28;20034;-84
2021/05/10 11:05:29;;;;;;;0.80;0.80;;;;;;;;;;5032035;28;20045;-84
2021/05/10 11:08:01;;;;;;;1.00;0.90;;;;;;;;;;5047180;28;20044;-83
2021/05/10 11:10:40;;;;;;;1.77;0.73;;;;;;;;;;5046997;28;20065;-84
2021/05/10 11:13:07;;;;;;;3.38;1.17;;;;;;;;;;5047595;28;20041;-84
2021/05/10 11:15:33;;;;;;;1.15;0.85;;;;;;;;;;5047470;28;20041;-84
2021/05/10 11:17:59;;;;;;;1.23;0.90;;;;;;;;;;5032010;28;20457;-84
2021/05/10 11:20:44;;;;;;;0.80;0.80;;;;;;;;;;5047394;28;20132;-83
2021/05/10 11:23:22;;;;;;;1.83;0.93;;;;;;;;;;5032235;28;20038;-84
2021/05/10 11:25:48;;;;;;;2.30;1.08;;;;;;;;;;5032203;28;20505;-83
2021/05/10 11:28:27;;;;;;;1.10;1.00;;;;;;;;;;5047216;28;20037;-84
2021/05/10 11:30:56;;;;;;;0.85;0.85;;;;;;;;;;5032127;28;20117;-84
2021/05/10 11:33:41;;;;;;;2.83;1.00;;;;;;;;;;5047702;28;20053;-84
2021/05/10 11:36:07;;;;;;;2.15;1.00;;;;;;;;;;5031993;28;20489;-84
2021/05/10 11:38:33;;;;;;;2.05;1.30;;;;;;;;;;5047259;28;20124;-84
2021/05/10 11:40:59;;;;;;;2.13;1.20;;;;;;;;;;5047077;28;20089;-84
2021/05/10 11:43:25;;;;;;;3.72;1.33;;;;;;;;;;5047374;28;20103;-84
2021/05/10 11:45:52;;;;;;;2.10;1.10;;;;;;;;;;5032241;28;20033;-84
2021/05/10 11:48:38;;;;;;;1.75;1.40;;;;;;;;;;5047251;28;20477;-84
2021/05/10 11:51:17;;;;;;;1.60;1.48;;;;;;;;;;5031942;28;20477;-84
2021/05/10 11:53:45;;;;;;;3.10;1.67;;;;;;;;;;5047036;28;20041;-84
2021/05/10 11:56:11;;;;;;;2.05;1.63;;;;;;;;;;5047167;28;20444;-84
2021/05/10 11:58:51;;;;;;;3.10;1.40;;;;;;;;;;5031736;28;20042;-84
2021/05/10 12:01:30;;;;;;;1.73;1.60;;;;;;;;;;5045377;28;20041;-84
2021/05/10 12:03:56;;;;;;;2.90;1.90;;;;;;;;;;5047162;28;20064;-85
2021/05/10 12:06:32;;;;;;;3.20;1.40;;;;;;;;;;5031976;28;20104;-84
2021/05/10 12:08:58;;;;;;;2.67;1.90;;;;;;;;;;5031752;28;20079;-84
2021/05/10 12:11:24;;;;;;;2.60;1.75;;;;;;;;;;5047285;28;20482;-84
2021/05/10 12:13:50;;;;;;;2.35;1.85;;;;;;;;;;5047037;28;20040;-82
2021/05/10 12:16:16;;;;;;;2.00;1.75;;;;;;;;;;5031592;28;20045;-84
2021/05/10 12:18:55;;;;;;;3.28;1.92;;;;;;;;;;5031646;28;20048;-83
2021/05/10 12:21:21;;;;;;;1.80;1.50;;;;;;;;;;5031846;28;20042;-84
2021/05/10 12:23:47;;;;;;;1.90;1.67;;;;;;;;;;5046868;28;20048;-84
2021/05/10 12:26:14;;;;;;;2.30;2.10;;;;;;;;;;5046903;28;20045;-84
2021/05/10 12:28:40;;;;;;;2.45;2.00;;;;;;;;;;5046637;28;20480;-84
2021/05/10 12:31:06;;;;;;;2.80;2.38;;;;;;;;;;5048222;28;20164;-84
2021/05/10 12:33:33;;;;;;;4.78;1.98;;;;;;;;;;5050553;28;20044;-84
2021/05/10 12:36:03;;;;;;;3.85;1.73;;;;;;;;;;5050252;28;20057;-84
2021/05/10 12:38:40;;;;;;;2.30;1.58;;;;;;;;;;5050229;28;20048;-84
2021/05/10 12:41:07;;;;;;;3.53;1.65;;;;;;;;;;5049939;28;20060;-83
2021/05/10 12:43:33;;;;;;;2.83;1.67;;;;;;;;;;5050330;28;20041;-84
2021/05/10 12:45:59;;;;;;;3.38;1.65;;;;;;;;;;5050302;28;20042;-84
2021/05/10 12:48:26;;;;;;;2.47;1.60;;;;;;;;;;5035110;28;20056;-84
2021/05/10 12:51:05;;;;;;;4.05;1.70;;;;;;;;;;5050243;28;20038;-84
2021/05/10 12:54:04;;;;;;;2.22;1.50;;;;;;;;;;5034826;28;20504;-83
2021/05/10 12:56:41;;;;;;;3.05;2.00;;;;;;;;;;5033466;28;20049;-84
2021/05/10 12:59:07;;;;;;;4.03;2.10;;;;;;;;;;5049938;28;20117;-83
2021/05/10 13:01:33;;;;;;;4.50;2.10;;;;;;;;;;5034645;28;20081;-83
2021/05/10 13:04:00;;;;;;;3.53;2.22;;;;;;;;;;5049903;28;20034;-83
2021/05/10 13:06:27;;;;;;;3.30;2.17;;;;;;;;;;5049870;28;20060;-84
2021/05/10 13:08:53;;;;;;;3.83;2.70;;;;;;;;;;5049891;28;20107;-83
2021/05/10 13:11:39;;;;;;;4.10;2.60;;;;;;;;;;5034525;28;20042;-83
2021/05/10 13:14:12;;;;;;;4.32;3.05;;;;;;;;;;5034442;28;20045;-83
2021/05/10 13:17:03;;;;;;;;;;;;;;;;;;5049175;28;20045;-83
2021/05/10 13:19:53;;;;;;;4.68;2.88;;;;;;;;;;5034182;28;19916;-83
2021/05/10 13:33:13;;;;;;;3.47;2.88;;;;;;;;;;5047219;28;20034;-84
2021/05/10 13:38:24;;;;;;;2.72;1.73;;;;;;;;;;5046922;28;20064;-84
2021/05/10 13:40:51;;;;;;;4.25;1.92;;;;;;;;;;5032563;28;20053;-83
2021/05/10 13:45:44;;;;;;;2.72;1.75;;;;;;;;;;5048996;28;20037;-83
2021/05/10 13:48:10;;;;;;;3.63;1.58;;;;;;;;;;5049118;28;20064;-83
2021/05/10 13:50:36;;;;;;;5.00;1.63;;;;;;;;;;5048983;28;20069;-83
2021/05/10 13:53:02;;;;;;;3.05;1.75;;;;;;;;;;5049061;28;20122;-83
2021/05/10 13:55:28;;;;;;;3.10;1.75;;;;;;;;;;5049187;28;20041;-82
2021/05/10 13:57:57;;;;;;;3.20;1.42;;;;;;;;;;5048957;28;20120;-84
2021/05/10 14:00:23;;;;;;;3.65;1.40;;;;;;;;;;5048574;28;20124;-84
2021/05/10 14:02:50;;;;;;;1.88;1.40;;;;;;;;;;5033515;28;20547;-84
2021/05/10 14:05:16;;;;;;;2.58;1.40;;;;;;;;;;5032091;28;20056;-84
2021/05/10 14:07:43;;;;;;;2.95;1.45;;;;;;;;;;5048877;28;20076;-83
2021/05/10 14:10:09;;;;;;;2.35;1.65;;;;;;;;;;5048685;28;20065;-83
2021/05/10 14:12:38;;;;;;;4.70;1.92;;;;;;;;;;5033321;28;20092;-84
2021/05/10 14:15:04;;;;;;;1.67;1.15;;;;;;;;;;5031931;28;20092;-84
2021/05/10 14:17:30;;;;;;;2.20;1.50;;;;;;;;;;5048400;28;20041;-84
2021/05/10 14:19:57;;;;;;;2.47;1.52;;;;;;;;;;5048859;28;20037;-84
2021/05/10 14:22:23;;;;;;;3.08;1.42;;;;;;;;;;5048288;28;20037;-84
2021/05/10 14:24:52;;;;;;;3.53;1.38;;;;;;;;;;5048384;28;20472;-84
2021/05/10 14:27:18;;;;;;;2.80;1.30;;;;;;;;;;5047800;28;20029;-84
2021/05/10 14:29:44;;;;;;;2.65;1.48;;;;;;;;;;5048332;28;20115;-84
2021/05/10 14:32:10;;;;;;;2.53;1.63;;;;;;;;;;5047994;28;20053;-84
2021/05/10 14:34:36;;;;;;;4.13;1.50;;;;;;;;;;5048325;28;20400;-84
2021/05/10 14:37:02;;;;;;;2.28;1.45;;;;;;;;;;5048115;28;20063;-84
2021/05/10 14:39:31;;;;;;;2.75;1.48;;;;;;;;;;5048058;28;20058;-83
2021/05/10 14:41:57;;;;;;;2.70;1.50;;;;;;;;;;5032817;28;20053;-83
2021/05/10 14:44:23;;;;;;;3.10;1.35;;;;;;;;;;5032697;28;20064;-83
2021/05/10 14:46:50;;;;;;;2.20;1.45;;;;;;;;;;5047797;28;20042;-83
2021/05/10 14:49:17;;;;;;;2.92;1.38;;;;;;;;;;5047743;28;20033;-83
2021/05/10 14:51:43;;;;;;;1.73;1.30;;;;;;;;;;5048037;28;20033;-84
2021/05/10 14:54:10;;;;;;;3.15;1.70;;;;;;;;;;5047441;28;20060;-84
2021/05/10 14:56:36;;;;;;;3.30;1.48;;;;;;;;;;5047528;28;20068;-84
2021/05/10 14:59:03;;;;;;;3.63;1.67;;;;;;;;;;5032372;28;20107;-84
2021/05/10 15:01:30;;;;;;;5.38;1.90;;;;;;;;;;5047996;28;20037;-83
2021/05/10 15:03:56;;;;;;;2.60;1.65;;;;;;;;;;5047685;28;20104;-84